Terminal Aerodrome Forecast
Issued by NWS

Home | Current Version | Previous Version | Text Only | Print | Product List | Glossary On
Versions: 1 2 3 4 5 6 7 8 9 10 11 12 13 14 15 16 17 18 19 20 21 22 23 24 25 26 27 28 29 30 31
000
FTAK31 PANC 210731 AAA
TAFADU
TAF AMD
PADU 210731Z 2108/2206 15014G22KT P6SM -SHRASN BKN035
     FM211200 13018G26KT 5SM -RA BR OVC015
     FM212100 15013G20KT 6SM -RA BR OVC020
     FM220100 17011KT P6SM -SHRA BKN025=

USA.gov is the U.S. government's official web portal to all federal, state and local government web resources and services.